Portada
METAR-TAF:

METAR-TAF

Aeropuertos :

Lárnaca, Chipre

Aeropuerto Internacional de Lárnaca

latitud: 34-53N, longitud: 033-38E, altitud: 2 m

Observación

El informe se hizo hace 40 minutos, a las 23:00 UTC
Viento 1 kt con dirección variable
Temperatura 17°C
Humedad 59%
Presión 1015 hPa
Visibilidad 10 km o más
sin nubes por debajo de 1500 m y sin presencia de cumulonimbus.

METAR: LCLK 202300Z VRB01KT CAVOK 17/09 Q1015 NOSIG

Hora: 02:40 (23:40 UTC)

Pronóstico

El informe se hizo hace 10 minutos, a las 23:30 UTC
Pronóstico válido del 21 a las 00 UTC al 21 a las 24 UTC
Viento 5 kt del norte-noroeste
Visibilidad 10 km o más
Escasas nubes a una altura de 3000 ft
Evolucionando progresivamente
del 21 a las 09 UTC al 21 a las 12 UTC
Viento 10 kt del sur-suroeste
Evolucionando progresivamente
del 21 a las 15 UTC al 21 a las 18 UTC
Viento 5 kt del norte-noroeste

TAF: LCLK 202330Z 2100/2124 33005KT 9999 FEW030 BECMG 2109/2112 20010KT BECMG 2115/2118 33005KT

Observaciones y pronósticos meteorológicos de más de 4000 aeropuertos (mensajes METAR y TAF).

Los puntos amarillos y rojos representan las estaciones disponibles.

Ponga el ratón en el punto deseado para ver el nombre de la estación.

Haga clic para ver las observaciones y los pronósticos meteorológicos.

Para cambiar el mapa : haga clic en los botones verdes con una cruz de color negro para hacer un zoom, en el botón verde con un guión para alejar o en las flechas verdes para mapas adyacentes.


METAR-TAF: